Time;durP1;ratioP1;P1;durP2;ratioP2;P2;SDS_P1;SDS_P2;PMS_P1;PMS_P2;Temp;Humidity;BMP_temperature;BMP_pressure;BME280_temperature;BME280_humidity;BME280_pressure;Samples;Min_cycle;Max_cycle;Signal;HPM_P1;HPM_P2
2023/02/02 00:00:58;;;;;;;11.98;1.95;;;;;;;14.99;46.89;101989.69;4892932;29;20088;-65
2023/02/02 00:03:23;;;;;;;17.95;2.72;;;;;;;15.01;46.41;101993.13;4893608;29;20585;-66
2023/02/02 00:05:51;;;;;;;6.28;2.45;;;;;;;15.03;47.34;101992.97;4909254;29;20029;-66
2023/02/02 00:08:19;;;;;;;7.28;2.17;;;;;;;15.03;47.73;101996.53;4894210;29;20028;-66
2023/02/02 00:10:45;;;;;;;10.85;2.40;;;;;;;15.02;46.42;101994.81;4888004;29;20052;-65
2023/02/02 00:13:11;;;;;;;7.82;1.75;;;;;;;14.97;47.69;101988.09;4888551;29;20037;-66
2023/02/02 00:15:37;;;;;;;4.80;1.60;;;;;;;15.00;46.37;101998.63;4877026;29;20127;-66
2023/02/02 00:18:03;;;;;;;6.80;1.65;;;;;;;14.97;47.93;101998.88;4909412;29;20164;-66
2023/02/02 00:20:28;;;;;;;8.98;2.35;;;;;;;14.96;46.44;101992.63;4890685;29;20168;-66
2023/02/02 00:22:54;;;;;;;8.05;1.90;;;;;;;14.95;47.41;101982.84;4904263;29;20560;-66
2023/02/02 00:25:20;;;;;;;7.72;1.77;;;;;;;15.00;47.43;101993.22;4888249;29;20078;-66
2023/02/02 00:27:45;;;;;;;12.77;2.10;;;;;;;15.00;47.73;101987.84;4887519;29;20548;-66
2023/02/02 00:30:11;;;;;;;10.15;2.30;;;;;;;15.02;47.23;101986.72;4894589;29;20127;-65
2023/02/02 00:32:37;;;;;;;7.25;2.85;;;;;;;15.02;46.56;101983.16;4891651;29;20043;-66
2023/02/02 00:35:02;;;;;;;7.72;1.60;;;;;;;15.04;46.74;101981.22;4890894;29;20108;-66
2023/02/02 00:37:28;;;;;;;15.18;3.05;;;;;;;15.05;47.91;101975.66;4892653;29;20037;-66
2023/02/02 00:39:53;;;;;;;7.05;2.63;;;;;;;14.97;46.65;101966.50;4890045;29;20584;-66
2023/02/02 00:42:18;;;;;;;10.85;2.75;;;;;;;15.03;46.21;101982.19;4893365;29;20040;-66
2023/02/02 00:47:27;;;;;;;16.05;2.78;;;;;;;15.01;47.73;101990.44;4891871;29;20099;-66
2023/02/02 00:49:53;;;;;;;13.55;2.50;;;;;;;14.99;47.16;101986.16;4891537;29;20057;-66
2023/02/02 00:52:18;;;;;;;10.48;1.92;;;;;;;14.91;47.06;101969.72;4889087;29;20080;-66
2023/02/02 00:54:44;;;;;;;9.82;1.80;;;;;;;14.99;47.68;101986.16;4892591;29;20421;-66
2023/02/02 00:57:13;;;;;;;8.15;2.08;;;;;;;14.97;46.86;101983.56;4886591;29;20072;-66
2023/02/02 00:59:39;;;;;;;8.23;1.75;;;;;;;14.99;47.59;101986.16;4891069;29;20028;-66
2023/02/02 01:02:04;;;;;;;10.02;1.70;;;;;;;15.04;47.59;101992.88;4875498;29;20032;-66
2023/02/02 01:04:30;;;;;;;8.80;1.63;;;;;;;15.05;48.09;101991.84;4878086;29;20104;-66
2023/02/02 01:06:55;;;;;;;11.38;2.83;;;;;;;15.00;47.82;101982.44;4891961;29;20575;-67
2023/02/02 01:09:21;;;;;;;7.75;1.83;;;;;;;15.03;46.50;101983.03;4892212;29;20037;-66
2023/02/02 01:11:46;;;;;;;7.72;1.98;;;;;;;15.13;46.53;101993.94;4905719;29;20036;-66
2023/02/02 01:14:11;;;;;;;11.35;2.28;;;;;;;15.11;46.91;101985.09;4895008;29;20037;-66
2023/02/02 01:16:37;;;;;;;9.18;2.05;;;;;;;15.04;47.39;101983.91;4893905;29;20040;-66
2023/02/02 01:19:02;;;;;;;4.57;1.98;;;;;;;15.10;47.21;101988.78;4891145;29;20037;-66
2023/02/02 01:21:28;;;;;;;5.15;2.30;;;;;;;15.10;47.40;101994.19;4891044;29;20510;-66
2023/02/02 01:23:53;;;;;;;6.03;2.15;;;;;;;15.11;46.58;101996.75;4875018;29;20412;-66
2023/02/02 01:26:19;;;;;;;13.00;2.15;;;;;;;15.12;48.14;101995.78;4903294;29;20028;-66
2023/02/02 01:28:45;;;;;;;9.30;1.70;;;;;;;15.15;46.33;101997.34;4895238;29;20037;-66
2023/02/02 01:31:15;;;;;;;8.88;2.20;;;;;;;15.18;47.65;101991.69;4891214;29;20398;-65
2023/02/02 01:33:42;;;;;;;13.80;2.28;;;;;;;15.19;47.80;101997.97;4894568;29;20040;-66
2023/02/02 01:36:11;;;;;;;13.25;2.05;;;;;;;15.18;46.39;101997.09;4893498;29;20032;-66
2023/02/02 01:38:37;;;;;;;8.38;2.05;;;;;;;15.17;47.42;101995.38;4893257;29;20024;-66
2023/02/02 01:41:03;;;;;;;13.02;2.38;;;;;;;15.21;47.35;101991.44;4910960;29;20115;-66
2023/02/02 01:43:41;;;;;;;8.88;1.60;;;;;;;15.19;47.14;101998.78;4890752;29;20044;-66
2023/02/02 01:46:17;;;;;;;11.75;2.47;;;;;;;15.17;46.46;102006.16;4891400;29;20043;-66
2023/02/02 01:48:47;;;;;;;11.98;1.52;;;;;;;15.19;46.38;102008.75;4899597;29;20064;-67
2023/02/02 01:51:18;;;;;;;9.32;2.10;;;;;;;15.19;46.72;102009.59;4890519;29;20395;-66
2023/02/02 01:53:45;;;;;;;11.25;2.17;;;;;;;15.14;46.66;101995.63;4880399;29;20044;-66
2023/02/02 01:56:16;;;;;;;13.75;2.13;;;;;;;15.20;47.68;102011.31;4896241;29;20035;-66
2023/02/02 01:58:42;;;;;;;13.48;2.03;;;;;;;15.19;46.50;102009.59;4894839;29;20056;-66
2023/02/02 02:01:08;;;;;;;16.77;2.25;;;;;;;15.22;46.36;102012.03;4894578;29;20116;-66
2023/02/02 02:03:35;;;;;;;11.45;2.28;;;;;;;15.20;46.95;102005.03;4893215;29;20510;-67
2023/02/02 02:06:09;;;;;;;13.88;1.77;;;;;;;15.18;46.30;102001.63;4895239;29;20406;-66
2023/02/02 02:08:39;;;;;;;10.00;1.75;;;;;;;15.18;47.73;102002.50;4895726;29;20054;-66
2023/02/02 02:11:05;;;;;;;9.43;1.30;;;;;;;15.18;47.23;101991.69;4912619;29;20032;-66
2023/02/02 02:16:45;;;;;;;9.82;1.60;;;;;;;15.23;47.70;101994.00;4891219;29;20044;-66
2023/02/02 02:19:26;;;;;;;8.40;2.13;;;;;;;15.22;47.53;101993.13;4892741;29;20089;-66
2023/02/02 02:27:57;;;;;;;6.13;1.92;;;;;;;15.26;46.12;101994.59;4903337;29;20060;-66
2023/02/02 02:30:49;;;;;;;12.82;2.03;;;;;;;15.27;46.77;101985.50;4891589;29;20033;-66
2023/02/02 02:33:24;;;;;;;6.67;1.90;;;;;;;15.23;47.40;101986.75;4891268;29;20033;-67
2023/02/02 02:35:59;;;;;;;19.67;2.83;;;;;;;15.25;47.14;101981.22;4890741;29;20268;-66
2023/02/02 02:38:34;;;;;;;9.65;1.98;;;;;;;15.24;46.75;101980.38;4905213;29;20390;-66
2023/02/02 02:41:03;;;;;;;11.60;1.80;;;;;;;15.22;47.47;101970.66;4908619;29;20040;-66
2023/02/02 02:43:33;;;;;;;8.85;1.75;;;;;;;15.29;46.66;101982.69;4893807;29;20043;-66
2023/02/02 02:45:58;;;;;;;13.50;1.85;;;;;;;15.29;47.01;101983.53;4896366;29;20053;-67
2023/02/02 02:48:24;;;;;;;11.95;1.60;;;;;;;15.30;46.48;101987.94;4895912;29;20462;-66
2023/02/02 02:50:49;;;;;;;8.48;1.73;;;;;;;15.30;46.18;101987.94;4907154;29;20051;-66
2023/02/02 02:53:18;;;;;;;10.25;1.85;;;;;;;15.31;47.21;101991.50;4890627;29;20033;-66
2023/02/02 02:56:13;;;;;;;10.57;1.52;;;;;;;15.29;47.55;101988.94;4889935;29;20053;-66
2023/02/02 02:58:56;;;;;;;10.05;1.75;;;;;;;15.28;47.78;101995.31;4880057;29;20037;-66
2023/02/02 03:01:37;;;;;;;13.40;3.42;;;;;;;15.26;47.52;102007.22;4888470;29;20068;-66
2023/02/02 03:04:07;;;;;;;11.77;1.65;;;;;;;15.24;46.70;102007.38;4878855;29;20048;-66
2023/02/02 03:06:50;;;;;;;10.05;1.63;;;;;;;15.27;47.06;102009.78;4878853;29;20056;-66
2023/02/02 03:09:18;;;;;;;;;;;;;;;15.26;46.13;102004.53;4888015;29;20104;-66
2023/02/02 03:11:44;;;;;;;11.75;1.77;;;;;;;15.21;47.08;102007.63;4898313;29;19922;-67
2023/02/02 03:14:09;;;;;;;11.57;2.13;;;;;;;15.27;46.38;102009.78;4892492;29;20411;-66
2023/02/02 03:16:36;;;;;;;12.43;2.30;;;;;;;15.29;47.13;102010.53;4894448;29;20040;-66
2023/02/02 03:19:03;;;;;;;9.93;2.22;;;;;;;15.25;46.74;102014.47;4890777;29;20042;-66
2023/02/02 03:21:29;;;;;;;10.82;1.95;;;;;;;15.23;46.65;102015.59;4893799;29;20123;-66
2023/02/02 03:23:54;;;;;;;8.82;2.25;;;;;;;15.21;47.53;102013.03;4892089;29;20124;-66
2023/02/02 03:26:20;;;;;;;15.00;3.08;;;;;;;15.21;46.42;102014.88;4892126;29;20084;-66
2023/02/02 03:28:46;;;;;;;19.48;2.67;;;;;;;15.22;46.45;102009.31;4889393;29;20044;-66
2023/02/02 03:31:12;;;;;;;10.38;2.25;;;;;;;15.20;47.94;102005.03;4877942;29;20036;-67
2023/02/02 03:33:37;;;;;;;8.10;1.83;;;;;;;15.24;46.28;102001.13;4878311;29;20047;-66
2023/02/02 03:36:03;;;;;;;9.18;1.80;;;;;;;15.25;47.26;102008.19;4889131;29;20052;-66
2023/02/02 03:38:28;;;;;;;14.82;3.72;;;;;;;15.25;47.00;102002.81;4886011;29;20029;-66
2023/02/02 03:40:54;;;;;;;12.27;2.25;;;;;;;15.26;47.36;102015.31;4907232;29;20434;-66
2023/02/02 03:43:23;;;;;;;10.95;1.80;;;;;;;15.24;47.35;102007.38;4892751;29;20045;-66
2023/02/02 03:46:01;;;;;;;8.90;2.13;;;;;;;15.19;46.16;102009.59;4889924;29;20043;-66
2023/02/02 03:48:27;;;;;;;9.50;2.10;;;;;;;15.17;46.69;102006.16;4891220;29;20037;-66
2023/02/02 03:50:53;;;;;;;19.75;2.20;;;;;;;15.17;47.24;102011.56;4892700;29;20100;-66
2023/02/02 03:53:18;;;;;;;14.70;2.15;;;;;;;15.09;47.01;101997.88;4906720;29;20033;-66
2023/02/02 03:55:44;;;;;;;7.60;2.03;;;;;;;15.16;47.84;102005.31;4892156;29;20045;-66
2023/02/02 03:58:09;;;;;;;6.43;1.98;;;;;;;15.15;46.72;102013.53;4876717;29;20037;-67
2023/02/02 04:00:35;;;;;;;15.18;2.10;;;;;;;15.14;47.34;102017.22;4874195;29;20936;-66
2023/02/02 04:03:00;;;;;;;7.85;1.63;;;;;;;15.18;47.02;102021.38;4892297;29;20045;-66
2023/02/02 04:05:26;;;;;;;11.23;2.28;;;;;;;15.19;46.88;102025.78;4891472;29;20485;-66
2023/02/02 04:07:52;;;;;;;11.27;2.65;;;;;;;15.15;47.47;102018.94;4909191;29;20028;-66
2023/02/02 04:10:18;;;;;;;10.45;1.80;;;;;;;15.22;47.98;102030.91;4877733;29;20033;-66
2023/02/02 04:12:43;;;;;;;16.02;2.10;;;;;;;15.21;47.70;102023.84;4909341;29;20121;-66
2023/02/02 04:15:09;;;;;;;11.32;2.13;;;;;;;15.21;47.08;102010.34;4891706;29;20087;-66
2023/02/02 04:17:34;;;;;;;12.05;1.85;;;;;;;15.21;47.95;102010.34;4909875;29;20036;-66
2023/02/02 04:20:01;;;;;;;10.25;1.83;;;;;;;15.20;47.68;102011.31;4890491;29;20051;-66
2023/02/02 04:22:26;;;;;;;12.95;2.15;;;;;;;15.18;48.09;102015.13;4891672;29;20496;-66
2023/02/02 04:24:52;;;;;;;7.72;1.65;;;;;;;15.18;46.82;102021.38;4890757;29;20076;-66
2023/02/02 04:27:17;;;;;;;6.68;2.00;;;;;;;15.15;46.93;102024.34;4892115;29;20251;-66
2023/02/02 04:29:43;;;;;;;16.88;3.05;;;;;;;15.13;47.73;102029.84;4892478;29;20029;-66
2023/02/02 04:32:08;;;;;;;15.70;3.10;;;;;;;15.15;47.64;102029.75;4891524;29;20390;-66
2023/02/02 04:34:34;;;;;;;7.70;1.85;;;;;;;15.13;46.70;102037.13;4892628;29;20044;-66
2023/02/02 04:36:59;;;;;;;8.95;1.85;;;;;;;15.12;46.71;102043.50;4889570;29;20095;-66
2023/02/02 04:39:25;;;;;;;8.35;1.60;;;;;;;15.11;47.09;102047.16;4891875;29;20378;-66
2023/02/02 04:41:50;;;;;;;13.02;2.58;;;;;;;15.08;47.25;102036.63;4868114;29;20111;-66
2023/02/02 04:44:15;;;;;;;8.25;2.63;;;;;;;15.08;46.70;102045.59;4913440;29;20036;-66
2023/02/02 04:46:42;;;;;;;7.35;1.73;;;;;;;15.06;46.47;102047.56;4895552;29;20040;-66
2023/02/02 04:49:10;;;;;;;11.20;2.17;;;;;;;15.04;48.13;102051.38;4894415;29;20095;-66
2023/02/02 04:51:36;;;;;;;7.00;2.40;;;;;;;15.03;48.28;102046.94;4895128;29;20075;-66
2023/02/02 04:54:02;;;;;;;16.67;2.15;;;;;;;15.02;47.66;102053.31;4881816;29;20929;-66
2023/02/02 04:56:28;;;;;;;6.57;2.38;;;;;;;15.01;47.95;102048.94;4866221;29;20123;-67
2023/02/02 04:58:55;;;;;;;5.35;1.83;;;;;;;14.99;48.22;102064.41;4898216;29;20058;-66
2023/02/02 05:01:20;;;;;;;11.18;1.85;;;;;;;14.98;48.22;102070.78;4895874;29;20040;-66
2023/02/02 05:03:47;;;;;;;9.40;1.70;;;;;;;14.97;47.69;102071.75;4894757;29;20045;-67
2023/02/02 05:06:13;;;;;;;14.65;1.88;;;;;;;14.92;48.21;102072.13;4895553;29;20028;-66
2023/02/02 05:08:39;;;;;;;12.00;2.50;;;;;;;14.92;47.81;102071.28;4895557;29;20017;-66
2023/02/02 05:11:12;;;;;;;6.13;1.52;;;;;;;14.90;47.30;102067.84;4894687;29;20509;-66
2023/02/02 05:13:37;;;;;;;11.50;2.20;;;;;;;14.88;48.62;102059.03;4894048;29;20037;-66
2023/02/02 05:16:03;;;;;;;13.38;2.10;;;;;;;14.87;48.13;102062.72;4896773;29;20052;-66
2023/02/02 05:18:30;;;;;;;11.18;2.00;;;;;;;14.87;47.80;102063.56;4879449;29;20045;-66
2023/02/02 05:20:59;;;;;;;7.95;2.22;;;;;;;14.85;48.08;102059.28;4891605;29;20112;-66
2023/02/02 05:23:26;;;;;;;13.27;3.55;;;;;;;14.84;47.31;102055.72;4900505;29;20039;-66
2023/02/02 05:25:52;;;;;;;10.50;2.00;;;;;;;14.90;47.30;102057.91;4882363;29;20036;-66
2023/02/02 05:28:19;;;;;;;11.95;2.58;;;;;;;14.91;48.28;102059.63;4893981;29;20119;-66
2023/02/02 05:30:45;;;;;;;10.40;1.40;;;;;;;14.90;47.98;102052.53;4893844;29;20060;-66
2023/02/02 05:33:10;;;;;;;9.07;2.35;;;;;;;14.89;48.40;102034.63;4894893;29;20520;-66
2023/02/02 05:35:36;;;;;;;9.32;1.35;;;;;;;14.93;47.74;102040.63;4896941;29;20033;-66
2023/02/02 05:38:01;;;;;;;13.32;2.30;;;;;;;14.92;48.45;102042.47;4897873;29;20056;-66
2023/02/02 05:40:27;;;;;;;7.57;1.95;;;;;;;14.93;48.58;102046.00;4894514;29;20497;-66
2023/02/02 05:42:52;;;;;;;10.18;1.95;;;;;;;14.92;48.01;102055.09;4895308;29;20115;-66
2023/02/02 05:45:17;;;;;;;12.13;2.55;;;;;;;14.92;48.53;102065.88;4896752;29;20041;-66
2023/02/02 05:47:43;;;;;;;11.57;1.90;;;;;;;14.85;48.14;102051.19;4882624;29;20493;-66
2023/02/02 05:50:09;;;;;;;12.65;1.95;;;;;;;14.90;47.91;102057.91;4896775;29;20055;-66
2023/02/02 05:52:35;;;;;;;13.43;2.28;;;;;;;14.91;48.80;102061.44;4896364;29;20040;-66
2023/02/02 05:55:01;;;;;;;5.30;2.40;;;;;;;14.93;48.14;102067.59;4890668;29;20056;-65
2023/02/02 05:57:26;;;;;;;12.88;2.88;;;;;;;14.90;47.41;102051.66;4892198;29;20501;-66
2023/02/02 05:59:53;;;;;;;13.88;2.47;;;;;;;14.87;47.84;102050.06;4895173;29;20041;-66
2023/02/02 06:02:18;;;;;;;15.35;2.03;;;;;;;14.93;47.43;102057.66;4892024;29;20035;-66
2023/02/02 06:04:44;;;;;;;11.60;1.95;;;;;;;14.96;47.69;102067.34;4892538;29;20037;-66
2023/02/02 06:07:09;;;;;;;19.20;2.13;;;;;;;14.92;47.65;102055.94;4896783;29;20033;-67
2023/02/02 06:09:35;;;;;;;14.85;3.10;;;;;;;14.95;48.67;102062.94;4911386;29;20044;-66
2023/02/02 06:12:01;;;;;;;14.20;2.20;;;;;;;14.96;47.56;102073.56;4893748;29;20034;-66
2023/02/02 06:14:27;;;;;;;12.15;1.70;;;;;;;14.97;48.74;102069.03;4893620;29;20040;-66
2023/02/02 06:16:52;;;;;;;7.65;1.98;;;;;;;14.95;48.32;102077.28;4893531;29;20036;-66
2023/02/02 06:19:18;;;;;;;11.32;1.92;;;;;;;14.94;48.23;102080.09;4892374;29;20032;-68
2023/02/02 06:21:43;;;;;;;7.82;1.52;;;;;;;14.92;47.11;102082.06;4906894;29;20776;-66
2023/02/02 06:24:09;;;;;;;8.20;2.00;;;;;;;14.89;48.61;102071.53;4896135;29;20036;-66
2023/02/02 06:26:34;;;;;;;11.07;2.38;;;;;;;14.94;48.67;102080.09;4893715;29;20581;-66
2023/02/02 06:29:00;;;;;;;9.27;1.67;;;;;;;14.94;47.92;102078.25;4892755;29;20045;-66
2023/02/02 06:31:25;;;;;;;11.05;1.90;;;;;;;14.94;48.12;102075.56;4907094;29;20084;-67
2023/02/02 06:33:53;;;;;;;11.55;1.70;;;;;;;14.92;48.35;102076.66;4896598;29;20028;-66
2023/02/02 06:36:19;;;;;;;10.32;2.08;;;;;;;14.89;48.82;102082.31;4893900;29;20051;-65
2023/02/02 06:38:50;;;;;;;10.48;1.80;;;;;;;14.90;49.02;102092.13;4892349;29;20044;-66
2023/02/02 06:41:15;;;;;;;4.60;1.73;;;;;;;14.88;48.87;102086.00;4895966;29;20028;-65
2023/02/02 06:43:41;;;;;;;10.68;2.28;;;;;;;14.86;48.15;102094.22;4893175;29;20147;-65
2023/02/02 06:46:06;;;;;;;4.03;1.90;;;;;;;14.86;47.61;102093.34;4894494;29;20043;-65
2023/02/02 06:48:31;;;;;;;8.15;2.17;;;;;;;14.89;49.18;102087.72;4892363;29;20052;-65
2023/02/02 06:50:58;;;;;;;8.75;1.58;;;;;;;14.91;47.32;102091.13;4907832;29;20488;-65
2023/02/02 06:53:25;;;;;;;7.55;2.50;;;;;;;14.93;48.15;102094.59;4908936;29;20028;-65
2023/02/02 06:55:54;;;;;;;6.45;2.30;;;;;;;14.94;47.98;102088.19;4896178;29;20131;-66
2023/02/02 06:58:21;;;;;;;7.47;1.90;;;;;;;14.94;47.42;102090.88;4893637;29;20100;-66
2023/02/02 07:00:47;;;;;;;3.70;2.03;;;;;;;14.90;47.60;102082.19;4882501;29;20409;-65
2023/02/02 07:03:13;;;;;;;14.73;2.90;;;;;;;14.93;48.75;102081.94;4894145;29;20088;-66
2023/02/02 07:05:39;;;;;;;8.52;1.95;;;;;;;14.95;47.68;102089.91;4893612;29;20035;-65
2023/02/02 07:08:04;;;;;;;7.63;2.35;;;;;;;14.98;47.99;102097.75;4894207;29;20409;-65
2023/02/02 07:10:30;;;;;;;16.88;3.70;;;;;;;14.99;48.77;102104.88;4891631;29;20055;-66
2023/02/02 07:12:55;;;;;;;10.50;2.90;;;;;;;15.02;47.31;102101.91;4893498;29;20052;-66
2023/02/02 07:15:21;;;;;;;14.25;2.28;;;;;;;15.03;47.50;102103.63;4891842;29;20524;-66
2023/02/02 07:17:46;;;;;;;6.10;2.08;;;;;;;15.06;47.52;102114.16;4892854;29;20085;-66
2023/02/02 07:20:12;;;;;;;8.35;2.35;;;;;;;15.07;48.76;102108.63;4893444;29;20028;-66
2023/02/02 07:22:38;;;;;;;13.90;2.30;;;;;;;15.09;47.44;102103.13;4895707;29;20577;-66
2023/02/02 07:25:05;;;;;;;7.72;1.98;;;;;;;15.11;47.36;102117.34;4894001;29;20050;-66
2023/02/02 07:27:31;;;;;;;14.07;2.75;;;;;;;15.10;48.57;102112.94;4891573;29;20041;-66
2023/02/02 07:29:57;;;;;;;11.57;2.55;;;;;;;15.11;48.51;102114.63;4892566;29;20037;-65
2023/02/02 07:32:22;;;;;;;9.75;2.90;;;;;;;15.12;47.41;102121.75;4894750;29;20474;-66
2023/02/02 07:34:48;;;;;;;7.68;2.17;;;;;;;15.14;48.46;102119.78;4892575;29;20063;-65
2023/02/02 07:37:13;;;;;;;10.68;2.38;;;;;;;15.14;48.71;102114.38;4891119;29;20497;-66
2023/02/02 07:39:39;;;;;;;7.75;2.88;;;;;;;15.15;47.74;102121.50;4894259;29;20063;-66
2023/02/02 07:42:04;;;;;;;13.98;2.25;;;;;;;15.09;48.29;102106.69;4893259;29;20100;-66
2023/02/02 07:44:30;;;;;;;9.50;1.88;;;;;;;15.14;47.94;102115.25;4893939;29;20477;-65
2023/02/02 07:46:55;;;;;;;11.45;2.20;;;;;;;15.13;47.51;102107.28;4891874;29;20039;-67
2023/02/02 07:49:21;;;;;;;13.95;3.30;;;;;;;15.14;48.75;102112.53;4893556;29;20056;-65
2023/02/02 07:51:48;;;;;;;11.38;2.40;;;;;;;15.16;47.29;102121.38;4892077;29;20033;-66
2023/02/02 07:54:13;;;;;;;9.45;2.35;;;;;;;15.18;48.42;102118.56;4894010;29;20063;-66
2023/02/02 07:56:39;;;;;;;11.10;2.50;;;;;;;15.20;47.08;102115.72;4892476;29;20119;-66
2023/02/02 07:59:04;;;;;;;9.18;2.47;;;;;;;15.19;48.52;102106.75;4893939;29;20392;-65
2023/02/02 08:01:30;;;;;;;5.32;1.90;;;;;;;15.18;47.28;102121.25;4878083;29;20140;-66
2023/02/02 08:04:02;;;;;;;14.90;2.65;;;;;;;15.17;47.74;102103.34;4906432;29;20489;-66
2023/02/02 08:06:38;;;;;;;7.40;1.75;;;;;;;15.19;47.05;102112.16;4891234;29;20044;-66
2023/02/02 08:09:08;;;;;;;9.35;1.80;;;;;;;15.23;48.05;102129.81;4878412;29;20040;-66
2023/02/02 08:11:35;;;;;;;14.45;2.67;;;;;;;15.24;47.36;102126.16;4893906;29;20185;-66
2023/02/02 08:14:01;;;;;;;9.52;2.28;;;;;;;15.26;48.77;102128.72;4892458;29;20413;-66
2023/02/02 08:16:28;;;;;;;10.00;1.98;;;;;;;15.27;48.48;102123.16;4893424;29;20489;-66
2023/02/02 08:18:54;;;;;;;14.80;3.17;;;;;;;15.30;47.23;102128.31;4892880;29;20036;-66
2023/02/02 08:21:20;;;;;;;4.88;2.10;;;;;;;15.31;47.21;102138.13;4891749;29;20038;-66
2023/02/02 08:23:46;;;;;;;4.15;1.70;;;;;;;15.31;47.89;102140.84;4894239;29;20040;-67
2023/02/02 08:26:14;;;;;;;14.75;2.35;;;;;;;15.32;47.78;102147.97;4862524;29;20108;-67
2023/02/02 08:28:41;;;;;;;16.25;2.83;;;;;;;15.32;47.14;102153.38;4878482;29;20032;-66
2023/02/02 08:31:24;;;;;;;8.55;2.70;;;;;;;15.33;47.50;102146.09;4893484;29;20516;-66
2023/02/02 08:33:50;;;;;;;10.48;3.20;;;;;;;15.30;48.45;102152.63;4893663;29;20033;-66
2023/02/02 08:36:20;;;;;;;7.15;2.83;;;;;;;15.27;47.78;102152.03;4892879;29;20045;-65
2023/02/02 08:38:45;;;;;;;9.70;2.20;;;;;;;15.29;48.05;102158.16;4893095;29;20044;-66
2023/02/02 08:41:13;;;;;;;8.38;2.40;;;;;;;15.32;48.18;102160.59;4894138;29;20043;-66
2023/02/02 08:43:39;;;;;;;3.80;1.95;;;;;;;15.37;47.36;102169.16;4893128;29;20041;-66
2023/02/02 08:46:05;;;;;;;11.48;2.28;;;;;;;15.37;47.98;102170.03;4878150;29;20044;-66
2023/02/02 08:48:30;;;;;;;8.85;2.30;;;;;;;15.39;48.00;102161.78;4897124;29;20837;-66
2023/02/02 08:50:57;;;;;;;8.20;2.05;;;;;;;15.41;47.54;102168.78;4891634;29;20041;-66
2023/02/02 08:53:23;;;;;;;9.65;2.42;;;;;;;15.44;47.43;102162.25;4877680;29;20040;-66
2023/02/02 08:55:57;;;;;;;8.02;3.05;;;;;;;15.45;47.32;102167.56;4893839;29;20033;-66
2023/02/02 08:58:22;;;;;;;7.68;2.25;;;;;;;15.44;48.29;102167.66;4892346;29;20032;-66
2023/02/02 09:00:48;;;;;;;2.90;2.28;;;;;;;15.45;47.01;102169.38;4893680;29;20029;-66
2023/02/02 09:03:15;;;;;;;10.82;2.60;;;;;;;15.42;48.46;102178.59;4890791;29;20051;-66
2023/02/02 09:05:41;;;;;;;5.13;2.47;;;;;;;15.44;47.58;102186.56;4894278;29;20053;-66
2023/02/02 09:08:06;;;;;;;5.85;1.92;;;;;;;15.43;47.11;102188.44;4891158;29;20505;-66
2023/02/02 09:10:34;;;;;;;11.45;2.92;;;;;;;15.40;47.20;102202.19;4893980;29;20037;-66
2023/02/02 09:13:00;;;;;;;4.70;2.20;;;;;;;15.40;48.83;102202.19;4893959;29;20118;-66
2023/02/02 09:15:25;;;;;;;6.93;2.20;;;;;;;15.42;47.60;102211.00;4877174;29;20036;-66
2023/02/02 09:17:51;;;;;;;4.85;1.73;;;;;;;15.40;47.29;102209.44;4894173;29;20079;-65
2023/02/02 09:20:16;;;;;;;11.20;2.72;;;;;;;15.40;47.71;102221.09;4894325;29;20092;-65
2023/02/02 09:22:42;;;;;;;11.70;3.08;;;;;;;15.40;47.46;102217.53;4892277;29;20028;-66
2023/02/02 09:25:07;;;;;;;7.97;1.85;;;;;;;15.40;47.42;102233.72;4891381;29;20057;-66
2023/02/02 09:27:36;;;;;;;7.53;2.25;;;;;;;15.36;48.30;102225.00;4895260;29;20105;-66
2023/02/02 09:30:02;;;;;;;10.70;2.55;;;;;;;15.42;48.79;102238.00;4897691;29;20041;-66
2023/02/02 09:32:27;;;;;;;5.00;2.00;;;;;;;15.46;47.77;102242.22;4897863;29;20047;-66
2023/02/02 09:34:53;;;;;;;8.43;2.10;;;;;;;15.46;47.41;102250.31;4897136;29;20039;-65
2023/02/02 09:37:18;;;;;;;18.55;2.88;;;;;;;15.45;47.70;102240.47;4895840;29;20530;-66
2023/02/02 09:39:44;;;;;;;9.40;2.53;;;;;;;15.55;47.51;102249.53;4896612;29;20057;-66
2023/02/02 09:42:48;;;;;;;7.32;2.70;;;;;;;15.57;47.67;102254.84;4894837;29;20044;-66
2023/02/02 09:45:38;;;;;;;7.40;2.03;;;;;;;15.52;47.21;102257.06;4895182;29;20037;-66
2023/02/02 09:48:12;;;;;;;8.10;2.00;;;;;;;15.54;48.75;102264.06;4896526;29;20045;-66
2023/02/02 09:50:38;;;;;;;7.03;1.95;;;;;;;15.56;48.84;102262.06;4895943;29;20398;-66
2023/02/02 09:53:18;;;;;;;7.97;1.95;;;;;;;15.55;48.01;102257.66;4896017;29;20040;-66
2023/02/02 09:55:47;;;;;;;5.93;2.50;;;;;;;15.58;48.58;102270.91;4894014;29;20056;-66
2023/02/02 09:58:19;;;;;;;7.10;1.80;;;;;;;15.65;47.96;102282.94;4894687;29;20020;-66
2023/02/02 10:00:49;;;;;;;4.07;2.45;;;;;;;15.62;47.35;102274.22;4910803;29;20041;-65
2023/02/02 10:03:30;;;;;;;5.20;1.77;;;;;;;15.60;48.69;102279.75;4895996;29;20032;-66
2023/02/02 10:06:06;;;;;;;11.50;2.33;;;;;;;15.64;48.55;102288.44;4910212;29;20119;-65
2023/02/02 10:08:38;;;;;;;19.77;2.45;;;;;;;15.69;47.17;102297.88;4896908;29;20037;-66
2023/02/02 10:11:35;;;;;;;6.50;2.20;;;;;;;15.76;48.50;102294.69;4881359;29;20019;-66
2023/02/02 10:14:14;;;;;;;8.13;2.72;;;;;;;15.79;47.92;102294.44;4896216;29;20056;-66
2023/02/02 10:16:39;;;;;;;14.30;2.08;;;;;;;15.85;47.14;102299.34;4894041;29;20509;-66
2023/02/02 10:19:10;;;;;;;6.28;2.22;;;;;;;15.86;48.03;102307.31;4880260;29;20081;-66
2023/02/02 10:21:47;;;;;;;14.00;2.63;;;;;;;15.90;48.53;102306.06;4892301;29;20029;-66
2023/02/02 10:24:19;;;;;;;9.02;1.98;;;;;;;15.96;47.38;102307.41;4906963;29;20148;-66
2023/02/02 10:26:47;;;;;;;9.20;2.25;;;;;;;15.98;48.23;102297.31;4894836;29;20482;-66
2023/02/02 10:29:25;;;;;;;7.07;1.92;;;;;;;16.05;47.09;102309.34;4896680;29;20566;-66
2023/02/02 10:32:23;;;;;;;8.82;2.00;;;;;;;16.15;48.34;102303.03;4895045;29;20040;-66
2023/02/02 10:34:55;;;;;;;4.93;1.52;;;;;;;16.21;46.86;102301.66;4882955;29;20123;-66
2023/02/02 10:37:36;;;;;;;7.68;2.15;;;;;;;16.23;47.56;102307.78;4894706;29;20051;-67
2023/02/02 10:40:10;;;;;;;7.22;2.35;;;;;;;16.24;47.85;102306.81;4894631;29;20043;-66
2023/02/02 10:42:44;;;;;;;10.77;2.03;;;;;;;16.22;47.56;102297.97;4892442;29;20119;-66
2023/02/02 10:45:20;;;;;;;7.35;2.78;;;;;;;16.22;46.84;102306.06;4896054;29;20047;-66
2023/02/02 10:47:45;;;;;;;7.35;2.70;;;;;;;16.23;47.36;102305.09;4895493;29;20047;-66
2023/02/02 10:50:10;;;;;;;9.10;2.25;;;;;;;16.26;47.95;102315.66;4895579;29;20429;-66
2023/02/02 10:52:37;;;;;;;12.00;2.67;;;;;;;16.26;47.39;102312.94;4895368;29;20033;-66
2023/02/02 10:55:08;;;;;;;8.00;2.20;;;;;;;16.25;46.81;102306.69;4893150;29;20983;-66
2023/02/02 10:58:00;;;;;;;6.95;3.28;;;;;;;16.18;47.67;102308.19;4894341;29;20048;-66
2023/02/02 11:00:35;;;;;;;10.18;2.55;;;;;;;16.17;47.79;102300.19;4892422;29;20516;-66
2023/02/02 11:03:03;;;;;;;6.13;1.92;;;;;;;16.11;47.69;102306.97;4893284;29;20051;-67
2023/02/02 11:08:18;;;;;;;9.38;2.45;;;;;;;16.25;46.70;102303.09;4892970;29;20051;-66
2023/02/02 11:10:44;;;;;;;8.52;2.50;;;;;;;16.31;48.01;102314.28;4909574;29;20033;-66
2023/02/02 11:13:18;;;;;;;10.70;2.85;;;;;;;16.33;47.91;102301.47;4893565;29;20131;-66
2023/02/02 11:15:44;;;;;;;10.30;2.53;;;;;;;16.37;47.37;102315.59;4892071;29;20107;-66
2023/02/02 11:18:29;;;;;;;9.52;2.83;;;;;;;16.38;46.91;102320.03;4895663;29;20121;-66
2023/02/02 11:20:55;;;;;;;7.38;1.95;;;;;;;16.37;46.58;102318.31;4893405;29;20540;-66
2023/02/02 11:23:20;;;;;;;5.53;2.08;;;;;;;16.33;46.46;102309.59;4895308;29;20036;-66
2023/02/02 11:25:56;;;;;;;10.38;2.33;;;;;;;16.39;47.42;102321.72;4894656;29;20156;-66
2023/02/02 11:28:26;;;;;;;5.95;2.00;;;;;;;16.42;46.75;102317.91;4892636;29;20028;-66
2023/02/02 11:30:52;;;;;;;3.72;2.20;;;;;;;16.43;46.69;102312.38;4893856;29;20057;-66
2023/02/02 11:33:29;;;;;;;9.60;2.60;;;;;;;16.47;46.72;102324.63;4894937;29;20041;-66
2023/02/02 11:36:18;;;;;;;9.70;2.35;;;;;;;16.49;46.92;102321.81;4896373;29;20032;-66
2023/02/02 11:38:43;;;;;;;6.13;2.33;;;;;;;16.51;45.93;102315.28;4893717;29;20036;-66
2023/02/02 11:41:11;;;;;;;5.90;2.97;;;;;;;16.54;47.11;102319.59;4896436;29;20485;-66